createdAt,value
2023-11-19T00:00:59.511Z,66.04
2023-11-19T00:01:59.559Z,66.26
2023-11-19T00:02:59.521Z,68.28
2023-11-19T00:03:59.481Z,62.68
2023-11-19T00:04:59.523Z,66.25
2023-11-19T00:05:59.394Z,66.58
2023-11-19T00:06:59.419Z,63.56
2023-11-19T00:07:59.378Z,65.41
2023-11-19T00:08:59.343Z,62.15
2023-11-19T00:09:59.351Z,63.52
2023-11-19T00:10:59.317Z,65.24
2023-11-19T00:11:59.319Z,65.37
2023-11-19T00:12:59.293Z,68.64
2023-11-19T00:13:59.254Z,67.74
2023-11-19T00:14:59.258Z,61.47
2023-11-19T00:15:59.251Z,62.27
2023-11-19T00:16:59.222Z,62.52
2023-11-19T00:18:02.055Z,68.43
2023-11-19T00:19:00.297Z,67.72
2023-11-19T00:19:59.140Z,63.64
2023-11-19T00:20:59.122Z,63.81
2023-11-19T00:21:59.161Z,65.79
2023-11-19T00:22:59.086Z,60.73
2023-11-19T00:23:59.068Z,65.21
2023-11-19T00:24:59.129Z,64.93
2023-11-19T00:25:59.053Z,65.84
2023-11-19T00:26:59.042Z,55.91
2023-11-19T00:27:59.007Z,66.04
2023-11-19T00:28:58.975Z,66.83
2023-11-19T00:29:58.958Z,61.37
2023-11-19T00:30:59.014Z,66.41
2023-11-19T00:31:58.985Z,65.96
2023-11-19T00:32:58.911Z,68.32
2023-11-19T00:33:58.975Z,64.76
2023-11-19T00:34:58.870Z,64.86
2023-11-19T00:35:58.889Z,64.95
2023-11-19T00:36:58.859Z,63.98
2023-11-19T00:37:58.820Z,62.81
2023-11-19T00:38:58.805Z,61.83
2023-11-19T00:39:58.808Z,65.81
2023-11-19T00:40:58.798Z,66.35
2023-11-19T00:41:58.753Z,70.93
2023-11-19T00:43:01.136Z,62.78
2023-11-19T00:43:58.713Z,64.25
2023-11-19T00:44:58.715Z,66.92
2023-11-19T00:45:58.707Z,63.82
2023-11-19T00:46:58.690Z,65.50
2023-11-19T00:47:58.655Z,66.35
2023-11-19T00:48:58.639Z,66.37
2023-11-19T00:49:58.625Z,59.48
2023-11-19T00:50:59.598Z,63.25
2023-11-19T00:51:58.579Z,63.04
2023-11-19T00:52:58.548Z,67.26
2023-11-19T00:53:58.533Z,67.06
2023-11-19T00:54:58.598Z,65.40
2023-11-19T00:55:58.499Z,61.00
2023-11-19T00:56:58.491Z,67.21
2023-11-19T00:57:58.542Z,63.93
2023-11-19T00:58:58.470Z,65.33
2023-11-19T00:59:58.457Z,64.24
2023-11-19T01:00:58.511Z,65.08
2023-11-19T01:01:58.399Z,58.34
2023-11-19T01:02:58.534Z,65.14
2023-11-19T01:03:58.524Z,64.07
2023-11-19T01:04:58.390Z,60.85
2023-11-19T01:05:58.333Z,62.81
2023-11-19T01:06:58.312Z,61.73
2023-11-19T01:07:58.274Z,58.19
2023-11-19T01:08:58.282Z,67.35
2023-11-19T01:09:58.280Z,61.94
2023-11-19T01:10:58.227Z,65.20
2023-11-19T01:11:58.202Z,65.00
2023-11-19T01:12:58.218Z,67.22
2023-11-19T01:13:58.191Z,64.03
2023-11-19T01:14:58.147Z,65.80
2023-11-19T01:15:58.167Z,64.18
2023-11-19T01:16:58.183Z,61.35
2023-11-19T01:17:58.175Z,58.32
2023-11-19T01:19:08.900Z,56.71
2023-11-19T01:20:00.127Z,63.80
2023-11-19T01:20:58.058Z,55.25
2023-11-19T01:21:58.062Z,60.57
2023-11-19T01:22:58.029Z,57.33
2023-11-19T01:23:57.983Z,62.01
2023-11-19T01:24:58.042Z,63.23
2023-11-19T01:25:57.976Z,61.50
2023-11-19T01:26:57.958Z,63.48
2023-11-19T01:27:57.955Z,60.21
2023-11-19T01:28:57.894Z,58.93
2023-11-19T01:29:57.884Z,63.15
2023-11-19T01:30:57.885Z,61.04
2023-11-19T01:31:57.961Z,54.91
2023-11-19T01:32:57.868Z,65.44
2023-11-19T01:33:57.869Z,67.42
2023-11-19T01:34:57.885Z,58.32
2023-11-19T01:35:57.766Z,65.33
2023-11-19T01:36:57.793Z,64.80
2023-11-19T01:37:57.737Z,65.63
2023-11-19T01:38:57.710Z,61.65
2023-11-19T01:39:59.624Z,64.66
2023-11-19T01:40:58.724Z,58.53
2023-11-19T01:41:57.684Z,66.99
2023-11-19T01:42:57.649Z,59.87
2023-11-19T01:43:57.637Z,56.41
2023-11-19T01:44:57.590Z,58.00
2023-11-19T01:45:57.658Z,64.46
2023-11-19T01:46:57.566Z,64.51
2023-11-19T01:47:57.585Z,63.76
2023-11-19T01:48:57.550Z,62.18
2023-11-19T01:49:57.501Z,61.40
2023-11-19T01:51:02.788Z,61.44
2023-11-19T01:51:59.470Z,52.13
2023-11-19T01:52:57.445Z,58.44
2023-11-19T01:53:57.429Z,65.29
2023-11-19T01:54:57.439Z,57.52
2023-11-19T01:55:57.416Z,63.59
2023-11-19T01:56:57.374Z,58.80
2023-11-19T01:57:57.380Z,62.13
2023-11-19T01:58:57.337Z,63.10
2023-11-19T01:59:57.345Z,60.57
2023-11-19T02:00:57.367Z,65.58
2023-11-19T02:02:58.421Z,60.32
2023-11-19T02:03:57.399Z,67.00
2023-11-19T02:04:57.245Z,60.47
2023-11-19T02:05:57.215Z,57.94
2023-11-19T02:06:57.222Z,68.27
2023-11-19T02:07:57.177Z,64.10
2023-11-19T02:08:57.179Z,59.78
2023-11-19T02:09:57.193Z,59.77
2023-11-19T02:10:57.114Z,59.78
2023-11-19T02:11:57.095Z,60.19
2023-11-19T02:13:06.210Z,59.75
2023-11-19T02:13:59.091Z,54.44
2023-11-19T02:14:57.044Z,51.82
2023-11-19T02:15:57.109Z,53.09
2023-11-19T02:16:57.029Z,59.44
2023-11-19T02:17:57.039Z,64.97
2023-11-19T02:18:57.011Z,56.71
2023-11-19T02:19:56.961Z,66.85
2023-11-19T02:20:56.947Z,63.55
2023-11-19T02:21:56.940Z,65.84
2023-11-19T02:22:56.927Z,57.05
2023-11-19T02:24:08.550Z,62.27
2023-11-19T02:24:57.907Z,61.99
2023-11-19T02:25:56.880Z,61.23
2023-11-19T02:26:56.827Z,57.04
2023-11-19T02:27:57.014Z,59.17
2023-11-19T02:28:56.791Z,60.16
2023-11-19T02:29:56.777Z,64.74
2023-11-19T02:31:56.801Z,59.08
2023-11-19T02:32:56.759Z,58.52
2023-11-19T02:33:56.738Z,61.41
2023-11-19T02:35:58.662Z,64.22
2023-11-19T02:36:56.694Z,58.42
2023-11-19T02:37:56.634Z,61.17
2023-11-19T02:38:56.618Z,58.82
2023-11-19T02:39:56.612Z,66.82
2023-11-19T02:40:56.578Z,65.61
2023-11-19T02:41:56.579Z,65.07
2023-11-19T02:42:56.730Z,63.09
2023-11-19T02:43:56.529Z,61.46
2023-11-19T02:44:56.513Z,59.30
2023-11-19T02:45:56.564Z,58.50
2023-11-19T02:46:56.497Z,62.70
2023-11-19T02:47:56.524Z,60.32
2023-11-19T02:48:56.505Z,55.55
2023-11-19T02:49:56.410Z,58.52
2023-11-19T02:50:56.412Z,50.85
2023-11-19T02:51:56.377Z,54.15
2023-11-19T02:52:56.354Z,65.52
2023-11-19T02:53:56.333Z,62.22
2023-11-19T02:54:56.360Z,54.45
2023-11-19T02:55:56.329Z,60.40
2023-11-19T02:56:56.330Z,55.50
2023-11-19T02:57:56.313Z,61.68
2023-11-19T02:58:56.244Z,60.40
2023-11-19T02:59:56.254Z,67.03
2023-11-19T03:00:56.333Z,64.25
2023-11-19T03:01:56.322Z,63.39
2023-11-19T03:02:56.260Z,64.66
2023-11-19T03:03:57.282Z,62.12
2023-11-19T03:04:56.177Z,64.13
2023-11-19T03:05:56.121Z,63.40
2023-11-19T03:06:56.104Z,59.29
2023-11-19T03:07:56.086Z,66.02
2023-11-19T03:08:56.086Z,62.85
2023-11-19T03:09:56.110Z,61.62
2023-11-19T03:10:56.032Z,63.45
2023-11-19T03:11:56.018Z,66.18
2023-11-19T03:12:56.109Z,63.57
2023-11-19T03:13:56.009Z,59.56
2023-11-19T03:14:55.996Z,62.94
2023-11-19T03:15:56.037Z,61.59
2023-11-19T03:16:56.025Z,58.53
2023-11-19T03:17:55.929Z,66.49
2023-11-19T03:18:55.992Z,64.69
2023-11-19T03:19:55.882Z,63.70
2023-11-19T03:20:55.906Z,67.90
2023-11-19T03:21:55.929Z,57.71
2023-11-19T03:22:55.846Z,58.34
2023-11-19T03:23:55.838Z,57.73
2023-11-19T03:24:55.801Z,56.34
2023-11-19T03:25:55.777Z,55.99
2023-11-19T03:26:55.778Z,63.22
2023-11-19T03:27:55.792Z,61.91
2023-11-19T03:28:55.742Z,56.99
2023-11-19T03:29:55.715Z,59.42
2023-11-19T03:30:55.702Z,58.73
2023-11-19T03:31:55.673Z,63.41
2023-11-19T03:32:55.750Z,61.46
2023-11-19T03:33:59.221Z,58.57
2023-11-19T03:34:55.614Z,62.29
2023-11-19T03:35:55.600Z,61.98
2023-11-19T03:36:55.587Z,61.20
2023-11-19T03:37:55.602Z,64.12
2023-11-19T03:38:55.536Z,65.58
2023-11-19T03:39:55.543Z,58.26
2023-11-19T03:40:55.500Z,58.21
2023-11-19T03:41:55.537Z,59.39
2023-11-19T03:42:55.523Z,55.18
2023-11-19T03:43:55.452Z,54.38
2023-11-19T03:44:55.464Z,66.16
2023-11-19T03:45:55.545Z,65.83
2023-11-19T03:46:56.335Z,57.48
2023-11-19T03:47:55.464Z,63.91
2023-11-19T03:48:55.413Z,62.52
2023-11-19T03:49:55.389Z,65.24
2023-11-19T03:50:55.327Z,61.40
2023-11-19T03:51:55.422Z,63.02
2023-11-19T03:52:55.308Z,62.45
2023-11-19T03:53:55.286Z,63.68
2023-11-19T03:54:55.294Z,58.65
2023-11-19T03:55:55.272Z,55.64
2023-11-19T03:56:55.262Z,61.88
2023-11-19T03:57:55.212Z,61.50
2023-11-19T03:58:56.188Z,60.54
2023-11-19T03:59:55.167Z,64.29
2023-11-19T04:00:55.199Z,64.86
2023-11-19T04:01:55.341Z,64.40
2023-11-19T04:02:55.207Z,66.57
2023-11-19T04:03:55.211Z,58.86
2023-11-19T04:04:55.181Z,66.59
2023-11-19T04:05:55.130Z,61.55
2023-11-19T04:06:55.126Z,62.31
2023-11-19T04:07:55.148Z,63.83
2023-11-19T04:08:55.166Z,60.04
2023-11-19T04:09:55.164Z,61.16
2023-11-19T04:10:55.038Z,63.76
2023-11-19T04:11:54.963Z,65.01
2023-11-19T04:12:54.950Z,65.42
2023-11-19T04:13:54.920Z,64.63
2023-11-19T04:15:55.886Z,57.74
2023-11-19T04:16:54.974Z,62.00
2023-11-19T04:17:54.874Z,55.32
2023-11-19T04:18:54.842Z,62.78
2023-11-19T04:19:54.887Z,62.00
2023-11-19T04:20:54.806Z,66.06
2023-11-19T04:21:54.802Z,60.71
2023-11-19T04:22:54.805Z,64.16
2023-11-19T04:23:54.772Z,63.89
2023-11-19T04:24:54.765Z,67.67
2023-11-19T04:25:54.719Z,67.69
2023-11-19T04:26:54.698Z,56.49
2023-11-19T04:27:54.707Z,58.63
2023-11-19T04:28:54.700Z,62.54
2023-11-19T04:29:56.140Z,63.08
2023-11-19T04:30:54.664Z,66.32
2023-11-19T04:31:54.615Z,69.27
2023-11-19T04:32:54.620Z,68.75
2023-11-19T04:33:54.617Z,63.42
2023-11-19T04:34:54.562Z,65.37
2023-11-19T04:35:54.548Z,62.95
2023-11-19T04:36:54.530Z,66.69
2023-11-19T04:37:54.552Z,63.23
2023-11-19T04:38:54.521Z,63.75
2023-11-19T04:39:54.569Z,65.24
2023-11-19T04:40:55.596Z,66.46
2023-11-19T04:41:54.461Z,62.52
2023-11-19T04:42:54.454Z,66.44
2023-11-19T04:43:54.413Z,66.64
2023-11-19T04:44:54.390Z,64.91
2023-11-19T04:45:54.426Z,59.52
2023-11-19T04:46:54.457Z,59.61
2023-11-19T04:47:54.392Z,68.38
2023-11-19T04:48:54.322Z,66.11
2023-11-19T04:49:54.305Z,57.70
2023-11-19T04:50:54.294Z,58.26
2023-11-19T04:51:54.292Z,65.84
2023-11-19T04:52:54.277Z,59.24
2023-11-19T04:53:54.264Z,60.32
2023-11-19T04:54:54.224Z,68.83
2023-11-19T04:55:54.201Z,59.68
2023-11-19T04:56:54.211Z,62.51
2023-11-19T04:57:54.193Z,58.85
2023-11-19T04:58:54.151Z,63.27
2023-11-19T04:59:54.138Z,56.52
2023-11-19T05:00:54.119Z,64.28
2023-11-19T05:01:54.159Z,62.18
2023-11-19T05:02:54.157Z,64.73
2023-11-19T05:03:54.729Z,66.54
2023-11-19T05:04:54.187Z,60.05
2023-11-19T05:05:54.056Z,66.54
2023-11-19T05:06:54.037Z,66.36
2023-11-19T05:07:53.995Z,66.05
2023-11-19T05:08:53.978Z,65.21
2023-11-19T05:09:53.967Z,67.43
2023-11-19T05:10:53.975Z,64.03
2023-11-19T05:11:53.936Z,62.17
2023-11-19T05:12:53.905Z,62.48
2023-11-19T05:13:53.891Z,65.79
2023-11-19T05:14:53.880Z,65.21
2023-11-19T05:15:53.877Z,66.10
2023-11-19T05:16:53.920Z,66.92
2023-11-19T05:17:53.834Z,61.76
2023-11-19T05:18:53.810Z,61.83
2023-11-19T05:19:53.820Z,63.02
2023-11-19T05:20:53.799Z,67.24
2023-11-19T05:21:54.278Z,61.96
2023-11-19T05:22:53.749Z,67.04
2023-11-19T05:23:53.720Z,61.42
2023-11-19T05:24:53.729Z,63.82
2023-11-19T05:25:53.685Z,66.74
2023-11-19T05:26:53.675Z,66.89
2023-11-19T05:27:53.664Z,67.50
2023-11-19T05:28:53.655Z,64.11
2023-11-19T05:29:53.650Z,63.23
2023-11-19T05:30:53.632Z,65.53
2023-11-19T05:31:53.651Z,65.54
2023-11-19T05:32:53.576Z,64.41
2023-11-19T05:33:53.594Z,64.90
2023-11-19T05:34:53.593Z,52.54
2023-11-19T05:35:53.517Z,62.98
2023-11-19T05:36:53.501Z,65.45
2023-11-19T05:37:53.494Z,67.22
2023-11-19T05:38:53.502Z,65.13
2023-11-19T05:39:53.450Z,62.60
2023-11-19T05:40:53.437Z,65.46
2023-11-19T05:41:53.415Z,64.97
2023-11-19T05:42:53.416Z,67.35
2023-11-19T05:43:53.426Z,66.32
2023-11-19T05:44:53.362Z,70.41
2023-11-19T05:45:53.351Z,66.82
2023-11-19T05:46:53.411Z,66.60
2023-11-19T05:47:53.385Z,66.93
2023-11-19T05:48:53.321Z,66.29
2023-11-19T05:49:53.280Z,63.38
2023-11-19T05:50:53.260Z,63.03
2023-11-19T05:51:53.241Z,65.07
2023-11-19T05:52:53.245Z,65.31
2023-11-19T05:53:53.206Z,65.91
2023-11-19T05:54:53.283Z,62.60
2023-11-19T05:55:53.165Z,63.65
2023-11-19T05:56:53.180Z,60.92
2023-11-19T05:57:53.159Z,65.70
2023-11-19T05:58:53.118Z,65.71
2023-11-19T05:59:53.099Z,64.86
2023-11-19T06:00:53.104Z,62.54
2023-11-19T06:01:53.114Z,58.23
2023-11-19T06:02:53.158Z,66.79
2023-11-19T06:03:53.079Z,68.09
2023-11-19T06:04:53.008Z,65.57
2023-11-19T06:05:52.998Z,67.63
2023-11-19T06:06:52.999Z,66.42
2023-11-19T06:07:52.956Z,64.25
2023-11-19T06:08:52.938Z,67.98
2023-11-19T06:09:52.930Z,67.21
2023-11-19T06:10:52.911Z,68.23
2023-11-19T06:11:52.936Z,67.80
2023-11-19T06:12:52.873Z,64.61
2023-11-19T06:13:52.869Z,68.00
2023-11-19T06:14:52.843Z,68.09
2023-11-19T06:15:52.842Z,64.37
2023-11-19T06:16:52.936Z,67.11
2023-11-19T06:17:52.847Z,63.96
2023-11-19T06:18:52.804Z,63.67
2023-11-19T06:19:52.768Z,57.57
2023-11-19T06:20:52.769Z,64.55
2023-11-19T06:21:52.720Z,60.98
2023-11-19T06:22:52.696Z,64.46
2023-11-19T06:23:52.691Z,66.69
2023-11-19T06:24:52.665Z,60.30
2023-11-19T06:25:52.674Z,67.54
2023-11-19T06:26:52.636Z,68.84
2023-11-19T06:27:52.614Z,66.33
2023-11-19T06:28:52.600Z,68.59
2023-11-19T06:29:52.603Z,65.18
2023-11-19T06:30:52.592Z,64.05
2023-11-19T06:31:52.546Z,67.40
2023-11-19T06:32:52.584Z,65.73
2023-11-19T06:33:52.531Z,59.93
2023-11-19T06:34:52.520Z,68.02
2023-11-19T06:35:52.465Z,69.80
2023-11-19T06:36:52.469Z,67.77
2023-11-19T06:37:52.443Z,68.58
2023-11-19T06:38:52.415Z,66.73
2023-11-19T06:39:52.426Z,68.14
2023-11-19T06:40:54.691Z,62.94
2023-11-19T06:41:53.369Z,63.39
2023-11-19T06:42:52.354Z,68.31
2023-11-19T06:43:52.383Z,67.57
2023-11-19T06:44:52.356Z,68.17
2023-11-19T06:45:52.295Z,69.84
2023-11-19T06:46:52.285Z,66.66
2023-11-19T06:47:52.272Z,69.48
2023-11-19T06:48:52.274Z,68.39
2023-11-19T06:49:52.241Z,65.76
2023-11-19T06:50:52.204Z,60.23
2023-11-19T06:51:52.182Z,68.68
2023-11-19T06:52:52.194Z,67.24
2023-11-19T06:53:52.180Z,68.62
2023-11-19T06:54:52.144Z,63.10
2023-11-19T06:55:52.145Z,71.96
2023-11-19T06:56:52.110Z,66.36
2023-11-19T06:57:52.081Z,69.11
2023-11-19T06:58:52.100Z,70.56
2023-11-19T06:59:52.061Z,69.44
2023-11-19T07:00:52.098Z,68.45
2023-11-19T07:01:52.019Z,66.62
2023-11-19T07:02:52.075Z,69.60
2023-11-19T07:03:52.066Z,68.45
2023-11-19T07:04:51.956Z,68.01
2023-11-19T07:05:51.942Z,65.36
2023-11-19T07:06:51.950Z,70.50
2023-11-19T07:07:51.935Z,66.31
2023-11-19T07:08:51.889Z,66.54
2023-11-19T07:09:51.877Z,69.66
2023-11-19T07:10:51.876Z,68.74
2023-11-19T07:11:51.891Z,68.72
2023-11-19T07:12:51.814Z,69.39
2023-11-19T07:13:51.804Z,69.55
2023-11-19T07:14:51.797Z,70.88
2023-11-19T07:15:51.803Z,67.31
2023-11-19T07:16:51.776Z,69.67
2023-11-19T07:18:02.489Z,69.82
2023-11-19T07:18:53.715Z,71.77
2023-11-19T07:19:51.693Z,71.32
2023-11-19T07:20:51.674Z,65.46
2023-11-19T07:21:51.686Z,67.64
2023-11-19T07:22:52.898Z,71.50
2023-11-19T07:23:51.638Z,68.94
2023-11-19T07:24:51.614Z,71.27
2023-11-19T07:25:51.615Z,69.56
2023-11-19T07:26:51.612Z,70.06
2023-11-19T07:27:51.546Z,70.17
2023-11-19T07:28:51.539Z,68.32
2023-11-19T07:29:51.563Z,65.80
2023-11-19T07:30:51.522Z,70.95
2023-11-19T07:31:51.511Z,69.61
2023-11-19T07:32:51.467Z,68.39
2023-11-19T07:33:51.500Z,69.02
2023-11-19T07:34:51.422Z,69.73
2023-11-19T07:35:51.429Z,68.76
2023-11-19T07:36:51.388Z,71.15
2023-11-19T07:37:51.422Z,69.49
2023-11-19T07:38:51.361Z,69.22
2023-11-19T07:39:51.363Z,69.92
2023-11-19T07:41:52.300Z,70.34
2023-11-19T07:42:51.284Z,70.98
2023-11-19T07:43:51.262Z,68.53
2023-11-19T07:44:51.285Z,67.55
2023-11-19T07:45:51.222Z,71.85
2023-11-19T07:46:51.239Z,66.95
2023-11-19T07:47:51.215Z,67.72
2023-11-19T07:48:51.171Z,69.03
2023-11-19T07:49:51.181Z,69.44
2023-11-19T07:50:51.162Z,68.19
2023-11-19T07:51:51.123Z,66.45
2023-11-19T07:52:51.109Z,70.64
2023-11-19T07:53:51.085Z,68.28
2023-11-19T07:54:51.087Z,70.54
2023-11-19T07:55:51.047Z,71.43
2023-11-19T07:56:51.081Z,67.83
2023-11-19T07:57:52.015Z,70.55
2023-11-19T07:58:51.022Z,67.38
2023-11-19T07:59:51.002Z,67.16
2023-11-19T08:00:50.954Z,70.92
2023-11-19T08:01:51.938Z,68.71
2023-11-19T08:02:51.172Z,70.84
2023-11-19T08:04:51.976Z,67.25
2023-11-19T08:05:50.868Z,68.85
2023-11-19T08:06:50.842Z,67.70
2023-11-19T08:07:50.819Z,72.66
2023-11-19T08:08:50.834Z,69.38
2023-11-19T08:09:50.784Z,70.50
2023-11-19T08:10:50.766Z,70.37
2023-11-19T08:11:50.742Z,72.33
2023-11-19T08:12:50.754Z,70.58
2023-11-19T08:13:50.740Z,70.04
2023-11-19T08:14:50.688Z,71.07
2023-11-19T08:15:50.716Z,70.27
2023-11-19T08:16:50.647Z,69.28
2023-11-19T08:17:50.734Z,71.78
2023-11-19T08:18:50.616Z,68.04
2023-11-19T08:19:50.598Z,69.53
2023-11-19T08:20:50.605Z,68.50
2023-11-19T08:21:50.550Z,69.07
2023-11-19T08:22:50.555Z,69.40
2023-11-19T08:23:50.564Z,69.37
2023-11-19T08:24:50.509Z,70.51
2023-11-19T08:25:50.471Z,70.02
2023-11-19T08:27:02.967Z,71.87
2023-11-19T08:27:52.462Z,67.72
2023-11-19T08:28:50.413Z,68.34
2023-11-19T08:29:50.392Z,70.17
2023-11-19T08:30:50.494Z,71.03
2023-11-19T08:31:50.358Z,70.47
2023-11-19T08:32:50.518Z,69.38
2023-11-19T08:33:50.320Z,69.48
2023-11-19T08:34:50.298Z,69.45
2023-11-19T08:35:50.290Z,71.05
2023-11-19T08:36:50.290Z,68.94
2023-11-19T08:37:50.242Z,71.04
2023-11-19T08:38:50.230Z,71.50
2023-11-19T08:39:50.197Z,71.08
2023-11-19T08:40:50.232Z,72.23
2023-11-19T08:41:50.193Z,68.87
2023-11-19T08:42:50.135Z,70.31
2023-11-19T08:43:50.117Z,69.91
2023-11-19T08:44:50.093Z,70.11
2023-11-19T08:45:50.185Z,70.05
2023-11-19T08:46:50.066Z,69.63
2023-11-19T08:47:50.098Z,69.60
2023-11-19T08:48:50.008Z,69.40
2023-11-19T08:50:03.834Z,71.14
2023-11-19T08:50:52.000Z,69.25
2023-11-19T08:51:49.957Z,71.26
2023-11-19T08:52:49.921Z,71.38
2023-11-19T08:53:50.008Z,69.87
2023-11-19T08:54:49.903Z,69.92
2023-11-19T08:55:49.932Z,70.54
2023-11-19T08:56:49.925Z,70.50
2023-11-19T08:57:49.818Z,70.90
2023-11-19T08:58:49.788Z,70.40
2023-11-19T08:59:49.823Z,72.20
2023-11-19T09:00:49.742Z,69.66
2023-11-19T09:01:49.736Z,71.08
2023-11-19T09:02:49.779Z,71.61
2023-11-19T09:03:49.772Z,69.78
2023-11-19T09:04:51.695Z,70.44
2023-11-19T09:05:50.668Z,72.29
2023-11-19T09:06:49.616Z,69.25
2023-11-19T09:07:49.596Z,69.44
2023-11-19T09:08:49.619Z,69.63
2023-11-19T09:09:49.593Z,68.10
2023-11-19T09:10:49.571Z,69.76
2023-11-19T09:11:49.556Z,68.41
2023-11-19T09:12:49.619Z,70.37
2023-11-19T09:13:49.578Z,69.00
2023-11-19T09:14:49.527Z,70.99
2023-11-19T09:15:49.478Z,69.68
2023-11-19T09:16:49.427Z,71.36
2023-11-19T09:17:49.553Z,69.40
2023-11-19T09:18:49.424Z,67.87
2023-11-19T09:19:49.374Z,71.64
2023-11-19T09:20:49.385Z,70.07
2023-11-19T09:21:49.344Z,69.20
2023-11-19T09:22:49.358Z,70.73
2023-11-19T09:23:49.356Z,70.68
2023-11-19T09:24:49.340Z,70.97
2023-11-19T09:25:49.260Z,71.18
2023-11-19T09:26:49.266Z,70.58
2023-11-19T09:27:49.252Z,68.12
2023-11-19T09:28:49.206Z,70.04
2023-11-19T09:29:49.185Z,71.25
2023-11-19T09:30:49.167Z,72.19
2023-11-19T09:31:49.157Z,70.90
2023-11-19T09:32:49.267Z,69.16
2023-11-19T09:33:49.210Z,70.86
2023-11-19T09:34:49.091Z,71.62
2023-11-19T09:35:49.104Z,70.32
2023-11-19T09:36:49.084Z,70.99
2023-11-19T09:37:49.069Z,70.35
2023-11-19T09:38:49.015Z,68.05
2023-11-19T09:39:49.032Z,71.44
2023-11-19T09:40:48.984Z,69.77
2023-11-19T09:41:48.994Z,70.35
2023-11-19T09:42:48.949Z,69.85
2023-11-19T09:43:48.928Z,69.85
2023-11-19T09:44:49.073Z,70.22
2023-11-19T09:45:48.969Z,70.52
2023-11-19T09:46:48.893Z,70.15
2023-11-19T09:47:49.030Z,70.26
2023-11-19T09:48:48.826Z,71.45
2023-11-19T09:49:49.011Z,71.65
2023-11-19T09:50:48.871Z,71.05
2023-11-19T09:51:48.802Z,70.17
2023-11-19T09:52:48.776Z,68.82
2023-11-19T09:53:48.792Z,68.43
2023-11-19T09:54:48.716Z,69.28
2023-11-19T09:55:48.734Z,71.76
2023-11-19T09:56:48.770Z,71.25
2023-11-19T09:57:48.664Z,71.09
2023-11-19T09:58:48.652Z,71.36
2023-11-19T09:59:48.668Z,71.04
2023-11-19T10:00:58.773Z,72.96
2023-11-19T10:01:50.637Z,70.30
2023-11-19T10:02:48.766Z,71.01
2023-11-19T10:03:48.897Z,71.95
2023-11-19T10:04:48.587Z,73.21
2023-11-19T10:05:48.538Z,71.51
2023-11-19T10:06:48.502Z,72.23
2023-11-19T10:07:48.471Z,71.05
2023-11-19T10:08:48.495Z,70.87
2023-11-19T10:09:48.475Z,71.98
2023-11-19T10:10:48.422Z,70.19
2023-11-19T10:11:48.428Z,71.68
2023-11-19T10:13:49.462Z,71.91
2023-11-19T10:14:48.382Z,71.13
2023-11-19T10:15:48.337Z,73.55
2023-11-19T10:16:49.294Z,71.74
2023-11-19T10:17:48.411Z,72.17
2023-11-19T10:18:48.277Z,72.79
2023-11-19T10:19:48.256Z,72.01
2023-11-19T10:20:48.209Z,69.92
2023-11-19T10:21:48.186Z,73.33
2023-11-19T10:22:48.179Z,72.20
2023-11-19T10:23:48.175Z,70.05
2023-11-19T10:24:51.862Z,71.24
2023-11-19T10:25:50.103Z,73.07
2023-11-19T10:26:48.130Z,71.51
2023-11-19T10:27:48.066Z,70.21
2023-11-19T10:28:48.140Z,71.67
2023-11-19T10:29:48.102Z,70.31
2023-11-19T10:30:48.293Z,71.82
2023-11-19T10:31:48.029Z,71.87
2023-11-19T10:32:48.109Z,73.32
2023-11-19T10:33:48.319Z,73.23
2023-11-19T10:34:48.013Z,72.45
2023-11-19T10:36:02.137Z,72.42
2023-11-19T10:36:49.885Z,73.41
2023-11-19T10:37:47.885Z,71.84
2023-11-19T10:38:47.866Z,71.29
2023-11-19T10:39:47.819Z,71.84
2023-11-19T10:40:47.802Z,73.19
2023-11-19T10:41:47.785Z,72.24
2023-11-19T10:42:48.787Z,72.80
2023-11-19T10:43:47.796Z,72.34
2023-11-19T10:44:47.735Z,72.11
2023-11-19T10:45:47.708Z,70.91
2023-11-19T10:46:47.740Z,71.29
2023-11-19T10:47:47.777Z,72.07
2023-11-19T10:48:47.657Z,71.85
2023-11-19T10:49:47.635Z,69.48
2023-11-19T10:50:47.634Z,72.64
2023-11-19T10:51:47.621Z,73.44
2023-11-19T10:52:47.567Z,72.64
2023-11-19T10:53:47.584Z,73.00
2023-11-19T10:54:47.520Z,71.88
2023-11-19T10:55:47.517Z,71.83
2023-11-19T10:56:47.524Z,72.53
2023-11-19T10:57:47.467Z,72.35
2023-11-19T10:58:47.442Z,73.89
2023-11-19T10:59:47.456Z,74.58
2023-11-19T11:00:47.446Z,71.66
2023-11-19T11:01:47.406Z,72.17
2023-11-19T11:02:47.439Z,71.78
2023-11-19T11:03:47.643Z,72.30
2023-11-19T11:04:47.319Z,72.93
2023-11-19T11:05:47.322Z,73.63
2023-11-19T11:06:47.301Z,70.84
2023-11-19T11:07:47.257Z,72.28
2023-11-19T11:08:47.241Z,73.03
2023-11-19T11:09:47.276Z,74.30
2023-11-19T11:11:48.178Z,74.43
2023-11-19T11:12:47.224Z,74.35
2023-11-19T11:13:47.163Z,73.74
2023-11-19T11:14:47.137Z,72.75
2023-11-19T11:15:47.131Z,71.28
2023-11-19T11:16:47.143Z,72.36
2023-11-19T11:17:47.088Z,72.88
2023-11-19T11:18:47.037Z,74.75
2023-11-19T11:19:47.019Z,72.27
2023-11-19T11:20:47.977Z,73.69
2023-11-19T11:21:46.979Z,73.71
2023-11-19T11:22:46.942Z,73.11
2023-11-19T11:23:46.925Z,72.24
2023-11-19T11:24:46.963Z,72.90
2023-11-19T11:25:46.863Z,73.07
2023-11-19T11:26:46.839Z,73.94
2023-11-19T11:27:46.913Z,73.29
2023-11-19T11:28:46.826Z,73.37
2023-11-19T11:29:46.806Z,73.58
2023-11-19T11:30:46.762Z,74.63
2023-11-19T11:31:46.757Z,72.92
2023-11-19T11:32:46.732Z,72.84
2023-11-19T11:34:47.686Z,72.19
2023-11-19T11:35:46.649Z,73.83
2023-11-19T11:36:46.668Z,72.89
2023-11-19T11:37:46.609Z,72.36
2023-11-19T11:38:46.608Z,74.01
2023-11-19T11:39:46.696Z,73.08
2023-11-19T11:40:46.577Z,75.86
2023-11-19T11:41:47.704Z,74.07
2023-11-19T11:42:46.734Z,73.91
2023-11-19T11:43:46.613Z,70.88
2023-11-19T11:44:46.502Z,73.29
2023-11-19T11:45:46.505Z,74.32
2023-11-19T11:46:46.526Z,74.20
2023-11-19T11:47:46.682Z,74.37
2023-11-19T11:48:46.396Z,72.11
2023-11-19T11:49:46.356Z,73.28
2023-11-19T11:50:46.332Z,72.57
2023-11-19T11:51:46.808Z,74.37
2023-11-19T11:52:46.318Z,74.81
2023-11-19T11:53:46.272Z,74.06
2023-11-19T11:54:46.286Z,71.30
2023-11-19T11:55:46.234Z,74.11
2023-11-19T11:56:46.241Z,74.06
2023-11-19T11:57:46.238Z,72.15
2023-11-19T11:58:46.904Z,73.80
2023-11-19T11:59:47.155Z,73.79
2023-11-19T12:00:46.175Z,73.76
2023-11-19T12:01:46.137Z,73.18
2023-11-19T12:02:46.147Z,74.00
2023-11-19T12:03:46.173Z,73.12
2023-11-19T12:04:46.138Z,73.62
2023-11-19T12:05:47.883Z,73.59
2023-11-19T12:06:47.120Z,73.36
2023-11-19T12:07:45.999Z,73.62
2023-11-19T12:09:46.970Z,72.93
2023-11-19T12:10:45.964Z,72.70
2023-11-19T12:11:45.933Z,74.16
2023-11-19T12:12:45.923Z,73.39
2023-11-19T12:13:45.871Z,72.76
2023-11-19T12:14:45.845Z,72.17
2023-11-19T12:15:45.867Z,72.46
2023-11-19T12:16:45.808Z,71.54
2023-11-19T12:17:45.980Z,75.04
2023-11-19T12:18:45.835Z,74.39
2023-11-19T12:19:45.739Z,73.37
2023-11-19T12:20:45.739Z,72.60
2023-11-19T12:21:45.741Z,73.54
2023-11-19T12:22:45.715Z,72.45
2023-11-19T12:23:45.654Z,72.47
2023-11-19T12:24:45.753Z,72.16
2023-11-19T12:25:45.644Z,73.17
2023-11-19T12:26:45.594Z,71.66
2023-11-19T12:27:45.588Z,73.45
2023-11-19T12:28:45.577Z,72.58
2023-11-19T12:29:45.595Z,71.49
2023-11-19T12:30:45.611Z,72.41
2023-11-19T12:31:46.559Z,74.64
2023-11-19T12:32:45.514Z,73.26
2023-11-19T12:33:45.492Z,74.63
2023-11-19T12:34:45.462Z,73.13
2023-11-19T12:35:45.442Z,72.46
2023-11-19T12:36:45.409Z,73.02
2023-11-19T12:37:45.377Z,71.72
2023-11-19T12:38:45.384Z,73.41
2023-11-19T12:39:45.372Z,74.00
2023-11-19T12:40:45.317Z,72.41
2023-11-19T12:41:45.298Z,73.51
2023-11-19T12:42:45.293Z,72.61
2023-11-19T12:44:46.238Z,74.91
2023-11-19T12:45:45.218Z,73.55
2023-11-19T12:46:45.244Z,73.62
2023-11-19T12:47:45.331Z,72.46
2023-11-19T12:48:45.213Z,74.14
2023-11-19T12:49:45.129Z,72.47
2023-11-19T12:50:45.113Z,74.37
2023-11-19T12:51:45.096Z,74.30
2023-11-19T12:52:45.092Z,72.01
2023-11-19T12:53:45.073Z,73.15
2023-11-19T12:54:45.045Z,73.26
2023-11-19T12:55:45.023Z,74.25
2023-11-19T12:56:44.989Z,73.91
2023-11-19T12:57:45.009Z,74.17
2023-11-19T12:58:44.948Z,74.94
2023-11-19T12:59:44.930Z,73.92
2023-11-19T13:00:44.945Z,72.95
2023-11-19T13:01:44.900Z,72.69
2023-11-19T13:02:44.935Z,73.10
2023-11-19T13:03:44.900Z,72.58